sensor_id;sensor_type;location;lat;lon;timestamp;pressure;altitude;pressure_sealevel;temperature;humidity
56038;BME280;41907;47.848;9.000;2023-03-04T00:01:12;96140.44;;;2.49;100.00
56038;BME280;41907;47.848;9.000;2023-03-04T00:03:37;96148.31;;;2.44;100.00
56038;BME280;41907;47.848;9.000;2023-03-04T00:06:03;96150.63;;;2.41;100.00
56038;BME280;41907;47.848;9.000;2023-03-04T00:08:29;96147.19;;;2.40;100.00
56038;BME280;41907;47.848;9.000;2023-03-04T00:10:54;96145.41;;;2.46;100.00
56038;BME280;41907;47.848;9.000;2023-03-04T00:13:19;96154.59;;;2.43;100.00
56038;BME280;41907;47.848;9.000;2023-03-04T00:15:46;96149.91;;;2.45;100.00
56038;BME280;41907;47.848;9.000;2023-03-04T00:18:12;96151.75;;;2.45;100.00
56038;BME280;41907;47.848;9.000;2023-03-04T00:20:37;96159.88;;;2.43;100.00
56038;BME280;41907;47.848;9.000;2023-03-04T00:23:03;96154.28;;;2.40;100.00
56038;BME280;41907;47.848;9.000;2023-03-04T00:25:28;96157.69;;;2.35;100.00
56038;BME280;41907;47.848;9.000;2023-03-04T00:27:53;96170.72;;;2.25;100.00
56038;BME280;41907;47.848;9.000;2023-03-04T00:30:19;96169.44;;;2.11;100.00
56038;BME280;41907;47.848;9.000;2023-03-04T00:32:44;96163.63;;;2.09;100.00
56038;BME280;41907;47.848;9.000;2023-03-04T00:35:10;96172.44;;;1.98;100.00
56038;BME280;41907;47.848;9.000;2023-03-04T00:37:35;96169.91;;;1.86;100.00
56038;BME280;41907;47.848;9.000;2023-03-04T00:40:00;96164.31;;;1.82;100.00
56038;BME280;41907;47.848;9.000;2023-03-04T00:42:25;96166.56;;;1.74;100.00
56038;BME280;41907;47.848;9.000;2023-03-04T00:44:51;96168.41;;;1.57;100.00
56038;BME280;41907;47.848;9.000;2023-03-04T00:47:16;96175.69;;;1.49;100.00
56038;BME280;41907;47.848;9.000;2023-03-04T00:49:42;96175.50;;;1.39;100.00
56038;BME280;41907;47.848;9.000;2023-03-04T00:52:07;96175.19;;;1.36;100.00
56038;BME280;41907;47.848;9.000;2023-03-04T00:54:32;96169.28;;;1.29;100.00
56038;BME280;41907;47.848;9.000;2023-03-04T00:56:58;96167.06;;;1.21;100.00
56038;BME280;41907;47.848;9.000;2023-03-04T00:59:24;96167.91;;;1.09;100.00
56038;BME280;41907;47.848;9.000;2023-03-04T01:01:49;96164.66;;;1.02;100.00
56038;BME280;41907;47.848;9.000;2023-03-04T01:04:14;96174.34;;;1.02;100.00
56038;BME280;41907;47.848;9.000;2023-03-04T01:06:40;96163.91;;;0.90;100.00
56038;BME280;41907;47.848;9.000;2023-03-04T01:09:05;96162.31;;;0.89;100.00
56038;BME280;41907;47.848;9.000;2023-03-04T01:11:30;96159.84;;;0.83;100.00
56038;BME280;41907;47.848;9.000;2023-03-04T01:13:56;96157.81;;;0.73;100.00
56038;BME280;41907;47.848;9.000;2023-03-04T01:16:21;96163.44;;;0.65;100.00
56038;BME280;41907;47.848;9.000;2023-03-04T01:18:46;96160.94;;;0.58;100.00
56038;BME280;41907;47.848;9.000;2023-03-04T01:21:12;96160.06;;;0.53;100.00
56038;BME280;41907;47.848;9.000;2023-03-04T01:23:37;96157.16;;;0.38;100.00
56038;BME280;41907;47.848;9.000;2023-03-04T01:26:03;96153.28;;;0.28;100.00
56038;BME280;41907;47.848;9.000;2023-03-04T01:28:28;96155.00;;;0.23;100.00
56038;BME280;41907;47.848;9.000;2023-03-04T01:30:54;96141.91;;;0.23;100.00
56038;BME280;41907;47.848;9.000;2023-03-04T01:33:19;96146.13;;;0.24;100.00
56038;BME280;41907;47.848;9.000;2023-03-04T01:35:44;96145.88;;;0.25;100.00
56038;BME280;41907;47.848;9.000;2023-03-04T01:38:10;96142.19;;;0.38;100.00
56038;BME280;41907;47.848;9.000;2023-03-04T01:40:36;96142.06;;;0.45;100.00
56038;BME280;41907;47.848;9.000;2023-03-04T01:43:02;96138.88;;;0.43;100.00
56038;BME280;41907;47.848;9.000;2023-03-04T01:45:28;96138.22;;;0.35;100.00
56038;BME280;41907;47.848;9.000;2023-03-04T01:47:55;96141.53;;;0.31;100.00
56038;BME280;41907;47.848;9.000;2023-03-04T01:50:31;96138.47;;;0.22;100.00
56038;BME280;41907;47.848;9.000;2023-03-04T01:52:57;96140.94;;;0.29;100.00
56038;BME280;41907;47.848;9.000;2023-03-04T01:55:23;96138.22;;;0.35;100.00
56038;BME280;41907;47.848;9.000;2023-03-04T01:57:50;96137.22;;;0.25;100.00
56038;BME280;41907;47.848;9.000;2023-03-04T02:00:26;96141.66;;;0.24;100.00
56038;BME280;41907;47.848;9.000;2023-03-04T02:03:01;96128.91;;;0.28;100.00
56038;BME280;41907;47.848;9.000;2023-03-04T02:05:29;96131.50;;;0.28;100.00
56038;BME280;41907;47.848;9.000;2023-03-04T02:07:56;96127.19;;;0.22;100.00
56038;BME280;41907;47.848;9.000;2023-03-04T02:10:23;96131.97;;;0.25;100.00
56038;BME280;41907;47.848;9.000;2023-03-04T02:12:49;96124.34;;;0.23;100.00
56038;BME280;41907;47.848;9.000;2023-03-04T02:15:15;96129.66;;;0.28;100.00
56038;BME280;41907;47.848;9.000;2023-03-04T02:17:41;96124.69;;;0.27;100.00
56038;BME280;41907;47.848;9.000;2023-03-04T02:22:44;96119.81;;;0.07;100.00
56038;BME280;41907;47.848;9.000;2023-03-04T02:25:17;96118.97;;;-0.22;100.00
56038;BME280;41907;47.848;9.000;2023-03-04T02:27:46;96123.75;;;-0.42;100.00
56038;BME280;41907;47.848;9.000;2023-03-04T02:30:11;96128.31;;;-0.49;100.00
56038;BME280;41907;47.848;9.000;2023-03-04T02:32:37;96127.94;;;-0.64;100.00
56038;BME280;41907;47.848;9.000;2023-03-04T02:35:03;96121.59;;;-0.68;100.00
56038;BME280;41907;47.848;9.000;2023-03-04T02:37:28;96116.13;;;-0.79;100.00
56038;BME280;41907;47.848;9.000;2023-03-04T02:39:53;96118.59;;;-0.84;100.00
56038;BME280;41907;47.848;9.000;2023-03-04T02:42:19;96121.47;;;-0.85;100.00
56038;BME280;41907;47.848;9.000;2023-03-04T02:44:46;96116.66;;;-0.88;100.00
56038;BME280;41907;47.848;9.000;2023-03-04T02:47:15;96117.91;;;-0.91;100.00
56038;BME280;41907;47.848;9.000;2023-03-04T02:49:42;96110.63;;;-0.89;100.00
56038;BME280;41907;47.848;9.000;2023-03-04T02:52:12;96110.84;;;-0.90;100.00
56038;BME280;41907;47.848;9.000;2023-03-04T02:54:38;96111.31;;;-0.93;100.00
56038;BME280;41907;47.848;9.000;2023-03-04T02:57:06;96105.84;;;-0.92;100.00
56038;BME280;41907;47.848;9.000;2023-03-04T02:59:32;96105.84;;;-0.92;100.00
56038;BME280;41907;47.848;9.000;2023-03-04T03:01:58;96112.09;;;-0.93;100.00
56038;BME280;41907;47.848;9.000;2023-03-04T03:04:24;96100.53;;;-0.85;100.00
56038;BME280;41907;47.848;9.000;2023-03-04T03:06:50;96105.84;;;-0.92;100.00
56038;BME280;41907;47.848;9.000;2023-03-04T03:09:16;96112.31;;;-0.94;100.00
56038;BME280;41907;47.848;9.000;2023-03-04T03:11:41;96105.28;;;-1.05;100.00
56038;BME280;41907;47.848;9.000;2023-03-04T03:14:07;96103.53;;;-1.12;100.00
56038;BME280;41907;47.848;9.000;2023-03-04T03:16:33;96103.63;;;-1.18;100.00
56038;BME280;41907;47.848;9.000;2023-03-04T03:18:59;96101.69;;;-1.23;100.00
56038;BME280;41907;47.848;9.000;2023-03-04T03:21:24;96113.19;;;-1.24;100.00
56038;BME280;41907;47.848;9.000;2023-03-04T03:23:49;96108.75;;;-1.23;100.00
56038;BME280;41907;47.848;9.000;2023-03-04T03:26:15;96111.50;;;-1.18;100.00
56038;BME280;41907;47.848;9.000;2023-03-04T03:28:41;96110.50;;;-1.05;100.00
56038;BME280;41907;47.848;9.000;2023-03-04T03:31:06;96110.28;;;-1.04;100.00
56038;BME280;41907;47.848;9.000;2023-03-04T03:33:32;96104.13;;;-1.09;100.00
56038;BME280;41907;47.848;9.000;2023-03-04T03:35:57;96104.69;;;-1.07;100.00
56038;BME280;41907;47.848;9.000;2023-03-04T03:38:22;96113.13;;;-1.05;100.00
56038;BME280;41907;47.848;9.000;2023-03-04T03:40:48;96110.84;;;-1.02;100.00
56038;BME280;41907;47.848;9.000;2023-03-04T03:43:13;96113.81;;;-0.98;100.00
56038;BME280;41907;47.848;9.000;2023-03-04T03:45:38;96109.94;;;-0.96;100.00
56038;BME280;41907;47.848;9.000;2023-03-04T03:48:04;96100.94;;;-1.00;100.00
56038;BME280;41907;47.848;9.000;2023-03-04T03:50:30;96108.53;;;-1.10;100.00
56038;BME280;41907;47.848;9.000;2023-03-04T03:52:55;96110.50;;;-1.05;100.00
56038;BME280;41907;47.848;9.000;2023-03-04T03:55:21;96099.56;;;-1.02;100.00
56038;BME280;41907;47.848;9.000;2023-03-04T03:57:46;96098.31;;;-1.00;100.00
56038;BME280;41907;47.848;9.000;2023-03-04T04:00:13;96104.56;;;-1.01;100.00
56038;BME280;41907;47.848;9.000;2023-03-04T04:02:39;96095.25;;;-1.08;100.00
56038;BME280;41907;47.848;9.000;2023-03-04T04:05:05;96098.97;;;-1.16;100.00
56038;BME280;41907;47.848;9.000;2023-03-04T04:07:31;96099.38;;;-1.31;100.00
56038;BME280;41907;47.848;9.000;2023-03-04T04:09:56;96096.75;;;-1.42;100.00
56038;BME280;41907;47.848;9.000;2023-03-04T04:12:22;96101.94;;;-1.54;100.00
56038;BME280;41907;47.848;9.000;2023-03-04T04:14:47;96102.38;;;-1.57;100.00
56038;BME280;41907;47.848;9.000;2023-03-04T04:17:12;96100.78;;;-1.58;100.00
56038;BME280;41907;47.848;9.000;2023-03-04T04:19:38;96109.31;;;-1.63;100.00
56038;BME280;41907;47.848;9.000;2023-03-04T04:22:05;96097.56;;;-1.72;100.00
56038;BME280;41907;47.848;9.000;2023-03-04T04:24:30;96102.78;;;-1.72;100.00
56038;BME280;41907;47.848;9.000;2023-03-04T04:26:56;96111.44;;;-1.71;100.00
56038;BME280;41907;47.848;9.000;2023-03-04T04:29:22;96112.44;;;-1.72;100.00
56038;BME280;41907;47.848;9.000;2023-03-04T04:31:47;96107.88;;;-1.77;100.00
56038;BME280;41907;47.848;9.000;2023-03-04T04:34:13;96109.19;;;-1.86;100.00
56038;BME280;41907;47.848;9.000;2023-03-04T04:36:38;96108.53;;;-1.81;100.00
56038;BME280;41907;47.848;9.000;2023-03-04T04:39:04;96107.81;;;-1.70;100.00
56038;BME280;41907;47.848;9.000;2023-03-04T04:41:35;96114.31;;;-1.61;100.00
56038;BME280;41907;47.848;9.000;2023-03-04T04:44:01;96114.31;;;-1.61;100.00
56038;BME280;41907;47.848;9.000;2023-03-04T04:46:26;96118.97;;;-1.63;100.00
56038;BME280;41907;47.848;9.000;2023-03-04T04:48:51;96114.47;;;-1.74;100.00
56038;BME280;41907;47.848;9.000;2023-03-04T04:51:17;96111.50;;;-1.78;100.00
56038;BME280;41907;47.848;9.000;2023-03-04T04:53:42;96118.13;;;-1.94;100.00
56038;BME280;41907;47.848;9.000;2023-03-04T04:56:14;96121.97;;;-1.96;100.00
56038;BME280;41907;47.848;9.000;2023-03-04T04:58:40;96123.28;;;-2.05;100.00
56038;BME280;41907;47.848;9.000;2023-03-04T05:01:06;96118.75;;;-2.10;100.00
56038;BME280;41907;47.848;9.000;2023-03-04T05:03:33;96123.22;;;-2.17;100.00
56038;BME280;41907;47.848;9.000;2023-03-04T05:05:59;96133.31;;;-2.20;100.00
56038;BME280;41907;47.848;9.000;2023-03-04T05:08:24;96125.69;;;-2.22;100.00
56038;BME280;41907;47.848;9.000;2023-03-04T05:10:51;96134.19;;;-2.27;100.00
56038;BME280;41907;47.848;9.000;2023-03-04T05:13:16;96135.22;;;-2.28;100.00
56038;BME280;41907;47.848;9.000;2023-03-04T05:15:43;96133.75;;;-2.23;100.00
56038;BME280;41907;47.848;9.000;2023-03-04T05:18:09;96140.94;;;-2.19;100.00
56038;BME280;41907;47.848;9.000;2023-03-04T05:20:34;96123.09;;;-2.22;100.00
56038;BME280;41907;47.848;9.000;2023-03-04T05:23:00;96129.81;;;-2.14;100.00
56038;BME280;41907;47.848;9.000;2023-03-04T05:25:25;96131.00;;;-2.10;100.00
56038;BME280;41907;47.848;9.000;2023-03-04T05:27:50;96129.78;;;-2.08;100.00
56038;BME280;41907;47.848;9.000;2023-03-04T05:30:16;96127.16;;;-2.08;100.00
56038;BME280;41907;47.848;9.000;2023-03-04T05:32:41;96129.19;;;-2.10;100.00
56038;BME280;41907;47.848;9.000;2023-03-04T05:35:07;96119.59;;;-2.16;100.00
56038;BME280;41907;47.848;9.000;2023-03-04T05:37:32;96124.47;;;-2.19;100.00
56038;BME280;41907;47.848;9.000;2023-03-04T05:39:58;96121.47;;;-2.23;100.00
56038;BME280;41907;47.848;9.000;2023-03-04T05:42:23;96125.78;;;-2.29;100.00
56038;BME280;41907;47.848;9.000;2023-03-04T05:44:48;96128.69;;;-2.37;100.00
56038;BME280;41907;47.848;9.000;2023-03-04T05:47:14;96130.09;;;-2.41;100.00
56038;BME280;41907;47.848;9.000;2023-03-04T05:49:39;96125.53;;;-2.45;100.00
56038;BME280;41907;47.848;9.000;2023-03-04T05:52:05;96132.41;;;-2.51;100.00
56038;BME280;41907;47.848;9.000;2023-03-04T05:54:31;96131.41;;;-2.50;100.00
56038;BME280;41907;47.848;9.000;2023-03-04T05:56:56;96134.16;;;-2.45;100.00
56038;BME280;41907;47.848;9.000;2023-03-04T05:59:21;96133.06;;;-2.55;100.00
56038;BME280;41907;47.848;9.000;2023-03-04T06:01:47;96135.03;;;-2.51;100.00
56038;BME280;41907;47.848;9.000;2023-03-04T06:04:13;96133.59;;;-2.47;100.00
56038;BME280;41907;47.848;9.000;2023-03-04T06:06:38;96137.94;;;-2.41;100.00
56038;BME280;41907;47.848;9.000;2023-03-04T06:09:03;96140.19;;;-2.26;100.00
56038;BME280;41907;47.848;9.000;2023-03-04T06:11:29;96143.41;;;-2.24;100.00
56038;BME280;41907;47.848;9.000;2023-03-04T06:13:54;96146.09;;;-2.31;100.00
56038;BME280;41907;47.848;9.000;2023-03-04T06:16:20;96144.09;;;-2.35;100.00
56038;BME280;41907;47.848;9.000;2023-03-04T06:18:45;96153.25;;;-2.26;100.00
56038;BME280;41907;47.848;9.000;2023-03-04T06:21:11;96157.13;;;-2.10;100.00
56038;BME280;41907;47.848;9.000;2023-03-04T06:23:36;96159.38;;;-1.96;100.00
56038;BME280;41907;47.848;9.000;2023-03-04T06:26:02;96160.97;;;-1.95;100.00
56038;BME280;41907;47.848;9.000;2023-03-04T06:28:28;96165.41;;;-2.13;100.00
56038;BME280;41907;47.848;9.000;2023-03-04T06:30:55;96164.75;;;-2.09;100.00
56038;BME280;41907;47.848;9.000;2023-03-04T06:33:21;96174.97;;;-2.07;100.00
56038;BME280;41907;47.848;9.000;2023-03-04T06:35:47;96170.63;;;-1.95;100.00
56038;BME280;41907;47.848;9.000;2023-03-04T06:38:12;96173.09;;;-1.82;100.00
56038;BME280;41907;47.848;9.000;2023-03-04T06:40:38;96174.75;;;-1.69;100.00
56038;BME280;41907;47.848;9.000;2023-03-04T06:43:03;96175.50;;;-1.62;100.00
56038;BME280;41907;47.848;9.000;2023-03-04T06:45:28;96179.75;;;-1.50;100.00
56038;BME280;41907;47.848;9.000;2023-03-04T06:47:54;96180.44;;;-1.24;100.00
56038;BME280;41907;47.848;9.000;2023-03-04T06:50:19;96168.47;;;-1.20;100.00
56038;BME280;41907;47.848;9.000;2023-03-04T06:52:45;96172.53;;;-1.06;100.00
56038;BME280;41907;47.848;9.000;2023-03-04T06:55:10;96172.53;;;-0.94;100.00
56038;BME280;41907;47.848;9.000;2023-03-04T06:57:37;96172.53;;;-0.94;100.00
56038;BME280;41907;47.848;9.000;2023-03-04T07:00:03;96184.06;;;-0.84;100.00
56038;BME280;41907;47.848;9.000;2023-03-04T07:02:29;96179.22;;;-0.68;100.00
56038;BME280;41907;47.848;9.000;2023-03-04T07:04:54;96182.63;;;-0.56;100.00
56038;BME280;41907;47.848;9.000;2023-03-04T07:07:20;96185.16;;;-0.38;100.00
56038;BME280;41907;47.848;9.000;2023-03-04T07:09:45;96182.75;;;-0.16;100.00
56038;BME280;41907;47.848;9.000;2023-03-04T07:12:10;96184.16;;;0.38;100.00
56038;BME280;41907;47.848;9.000;2023-03-04T07:14:36;96183.72;;;1.60;100.00
56038;BME280;41907;47.848;9.000;2023-03-04T07:17:01;96182.50;;;2.22;98.12
56038;BME280;41907;47.848;9.000;2023-03-04T07:19:27;96177.44;;;3.08;93.15
56038;BME280;41907;47.848;9.000;2023-03-04T07:21:52;96181.28;;;3.91;87.44
56038;BME280;41907;47.848;9.000;2023-03-04T07:24:17;96184.44;;;5.23;81.03
56038;BME280;41907;47.848;9.000;2023-03-04T07:26:43;96177.78;;;6.47;75.31
56038;BME280;41907;47.848;9.000;2023-03-04T07:29:08;96178.50;;;7.56;69.41
56038;BME280;41907;47.848;9.000;2023-03-04T07:31:34;96178.88;;;8.36;64.32
56038;BME280;41907;47.848;9.000;2023-03-04T07:34:06;96169.84;;;9.04;60.80
56038;BME280;41907;47.848;9.000;2023-03-04T07:36:34;96174.13;;;9.75;57.53
56038;BME280;41907;47.848;9.000;2023-03-04T07:38:59;96172.56;;;10.20;54.80
56038;BME280;41907;47.848;9.000;2023-03-04T07:41:26;96174.09;;;10.39;53.54
56038;BME280;41907;47.848;9.000;2023-03-04T07:43:52;96171.31;;;10.86;51.36
56038;BME280;41907;47.848;9.000;2023-03-04T07:46:18;96177.09;;;10.65;51.93
56038;BME280;41907;47.848;9.000;2023-03-04T07:48:43;96175.22;;;10.66;51.72
56038;BME280;41907;47.848;9.000;2023-03-04T07:53:40;96184.66;;;11.85;48.73
56038;BME280;41907;47.848;9.000;2023-03-04T07:56:06;96191.94;;;11.93;47.11
56038;BME280;41907;47.848;9.000;2023-03-04T07:58:32;96194.19;;;12.30;46.20
56038;BME280;41907;47.848;9.000;2023-03-04T08:00:58;96196.78;;;11.91;47.36
56038;BME280;41907;47.848;9.000;2023-03-04T08:03:23;96193.56;;;12.25;46.64
56038;BME280;41907;47.848;9.000;2023-03-04T08:05:49;96194.09;;;11.69;47.86
56038;BME280;41907;47.848;9.000;2023-03-04T08:08:15;96196.69;;;11.96;47.45
56038;BME280;41907;47.848;9.000;2023-03-04T08:10:41;96201.63;;;12.34;46.54
56038;BME280;41907;47.848;9.000;2023-03-04T08:13:07;96193.97;;;13.37;44.75
56038;BME280;41907;47.848;9.000;2023-03-04T08:15:32;96195.84;;;13.79;42.49
56038;BME280;41907;47.848;9.000;2023-03-04T08:18:00;96196.28;;;14.33;41.31
56038;BME280;41907;47.848;9.000;2023-03-04T08:20:25;96191.94;;;14.58;41.34
56038;BME280;41907;47.848;9.000;2023-03-04T08:22:50;96195.56;;;15.00;38.55
56038;BME280;41907;47.848;9.000;2023-03-04T08:25:16;96196.22;;;14.97;39.31
56038;BME280;41907;47.848;9.000;2023-03-04T08:27:41;96193.28;;;15.11;38.77
56038;BME280;41907;47.848;9.000;2023-03-04T08:30:07;96192.25;;;14.65;39.59
56038;BME280;41907;47.848;9.000;2023-03-04T08:32:33;96200.69;;;14.84;39.37
56038;BME280;41907;47.848;9.000;2023-03-04T08:34:58;96188.19;;;14.50;39.70
56038;BME280;41907;47.848;9.000;2023-03-04T08:37:26;96183.03;;;15.34;39.63
56038;BME280;41907;47.848;9.000;2023-03-04T08:39:52;96185.72;;;15.96;38.11
56038;BME280;41907;47.848;9.000;2023-03-04T08:42:17;96203.75;;;16.49;36.32
56038;BME280;41907;47.848;9.000;2023-03-04T08:44:42;96193.44;;;16.18;36.18
56038;BME280;41907;47.848;9.000;2023-03-04T08:47:08;96195.94;;;16.81;35.65
56038;BME280;41907;47.848;9.000;2023-03-04T08:49:34;96186.97;;;16.77;35.51
56038;BME280;41907;47.848;9.000;2023-03-04T08:52:00;96197.47;;;16.12;37.04
56038;BME280;41907;47.848;9.000;2023-03-04T08:54:25;96189.13;;;16.83;35.96
56038;BME280;41907;47.848;9.000;2023-03-04T08:56:50;96184.63;;;16.99;35.56
56038;BME280;41907;47.848;9.000;2023-03-04T08:59:16;96183.50;;;17.25;34.92
56038;BME280;41907;47.848;9.000;2023-03-04T09:01:41;96189.31;;;17.63;35.14
56038;BME280;41907;47.848;9.000;2023-03-04T09:04:06;96193.13;;;18.46;34.23
56038;BME280;41907;47.848;9.000;2023-03-04T09:06:32;96195.00;;;18.57;32.33
56038;BME280;41907;47.848;9.000;2023-03-04T09:08:57;96193.53;;;18.76;33.04
56038;BME280;41907;47.848;9.000;2023-03-04T09:11:22;96201.06;;;19.49;32.34
56038;BME280;41907;47.848;9.000;2023-03-04T09:13:48;96196.78;;;19.48;32.01
56038;BME280;41907;47.848;9.000;2023-03-04T09:16:15;96192.97;;;19.33;31.93
56038;BME280;41907;47.848;9.000;2023-03-04T09:18:41;96201.66;;;19.42;30.91
56038;BME280;41907;47.848;9.000;2023-03-04T09:21:08;96196.47;;;19.18;31.47
56038;BME280;41907;47.848;9.000;2023-03-04T09:23:34;96187.94;;;18.84;32.72
56038;BME280;41907;47.848;9.000;2023-03-04T09:25:59;96187.06;;;19.12;32.36
56038;BME280;41907;47.848;9.000;2023-03-04T09:28:25;96187.13;;;19.31;31.32
56038;BME280;41907;47.848;9.000;2023-03-04T09:30:50;96192.50;;;19.62;31.15
56038;BME280;41907;47.848;9.000;2023-03-04T09:33:16;96191.78;;;19.15;31.72
56038;BME280;41907;47.848;9.000;2023-03-04T09:35:42;96195.06;;;19.94;31.05
56038;BME280;41907;47.848;9.000;2023-03-04T09:38:07;96193.78;;;18.71;32.37
56038;BME280;41907;47.848;9.000;2023-03-04T09:40:40;96192.22;;;19.01;32.50
56038;BME280;41907;47.848;9.000;2023-03-04T09:43:11;96193.22;;;19.28;31.73
56038;BME280;41907;47.848;9.000;2023-03-04T09:45:47;96190.25;;;19.33;31.87
56038;BME280;41907;47.848;9.000;2023-03-04T09:48:17;96188.59;;;19.28;32.12
56038;BME280;41907;47.848;9.000;2023-03-04T09:53:48;96197.81;;;20.55;30.20
56038;BME280;41907;47.848;9.000;2023-03-04T09:56:15;96189.97;;;20.31;30.58
56038;BME280;41907;47.848;9.000;2023-03-04T09:58:59;96185.22;;;20.05;30.30
56038;BME280;41907;47.848;9.000;2023-03-04T10:01:36;96195.50;;;20.57;29.86
56038;BME280;41907;47.848;9.000;2023-03-04T10:04:13;96176.25;;;20.01;29.88
56038;BME280;41907;47.848;9.000;2023-03-04T10:06:41;96176.53;;;19.77;31.16
56038;BME280;41907;47.848;9.000;2023-03-04T10:09:13;96180.66;;;20.28;30.35
56038;BME280;41907;47.848;9.000;2023-03-04T10:11:54;96177.59;;;20.95;30.46
56038;BME280;41907;47.848;9.000;2023-03-04T10:17:02;96164.03;;;18.39;33.66
56038;BME280;41907;47.848;9.000;2023-03-04T10:22:48;96165.88;;;18.07;34.85
56038;BME280;41907;47.848;9.000;2023-03-04T10:25:23;96154.97;;;19.80;32.19
56038;BME280;41907;47.848;9.000;2023-03-04T10:27:58;96150.97;;;19.93;32.03
56038;BME280;41907;47.848;9.000;2023-03-04T10:30:47;96160.34;;;20.61;30.65
56038;BME280;41907;47.848;9.000;2023-03-04T10:33:19;96153.22;;;20.98;30.47
56038;BME280;41907;47.848;9.000;2023-03-04T10:38:28;96153.88;;;19.85;30.72
56038;BME280;41907;47.848;9.000;2023-03-04T10:40:56;96152.06;;;20.73;29.98
56038;BME280;41907;47.848;9.000;2023-03-04T10:43:22;96154.78;;;19.19;30.82
56038;BME280;41907;47.848;9.000;2023-03-04T10:45:47;96147.56;;;18.01;33.49
56038;BME280;41907;47.848;9.000;2023-03-04T10:48:22;96151.53;;;19.29;32.92
56038;BME280;41907;47.848;9.000;2023-03-04T10:50:48;96147.91;;;19.76;30.84
56038;BME280;41907;47.848;9.000;2023-03-04T10:53:29;96147.34;;;19.86;31.06
56038;BME280;41907;47.848;9.000;2023-03-04T10:55:57;96150.66;;;20.60;30.48
56038;BME280;41907;47.848;9.000;2023-03-04T10:58:23;96144.75;;;21.26;29.11
56038;BME280;41907;47.848;9.000;2023-03-04T11:01:04;96144.22;;;21.43;28.66
56038;BME280;41907;47.848;9.000;2023-03-04T11:03:35;96142.00;;;20.31;30.80
56038;BME280;41907;47.848;9.000;2023-03-04T11:06:18;96136.75;;;20.61;30.11
56038;BME280;41907;47.848;9.000;2023-03-04T11:08:47;96135.72;;;18.49;33.55
56038;BME280;41907;47.848;9.000;2023-03-04T11:11:30;96125.63;;;18.62;34.36
56038;BME280;41907;47.848;9.000;2023-03-04T11:14:00;96120.47;;;19.96;31.67
56038;BME280;41907;47.848;9.000;2023-03-04T11:16:30;96115.00;;;20.35;31.76
56038;BME280;41907;47.848;9.000;2023-03-04T11:19:04;96126.34;;;20.21;31.18
56038;BME280;41907;47.848;9.000;2023-03-04T11:21:35;96121.34;;;20.42;31.36
56038;BME280;41907;47.848;9.000;2023-03-04T11:24:04;96122.34;;;19.38;32.52
56038;BME280;41907;47.848;9.000;2023-03-04T11:26:38;96123.69;;;17.87;33.93
56038;BME280;41907;47.848;9.000;2023-03-04T11:29:40;96116.47;;;16.50;36.50
56038;BME280;41907;47.848;9.000;2023-03-04T11:32:17;96112.00;;;16.66;36.72
56038;BME280;41907;47.848;9.000;2023-03-04T11:34:58;96099.22;;;16.76;36.45
56038;BME280;41907;47.848;9.000;2023-03-04T11:37:39;96105.00;;;16.29;36.15
56038;BME280;41907;47.848;9.000;2023-03-04T11:45:37;96094.03;;;18.50;33.92
56038;BME280;41907;47.848;9.000;2023-03-04T11:48:32;96084.03;;;18.19;35.03
56038;BME280;41907;47.848;9.000;2023-03-04T11:56:43;96082.88;;;15.66;38.57
56038;BME280;41907;47.848;9.000;2023-03-04T11:59:19;96078.88;;;15.51;39.74
56038;BME280;41907;47.848;9.000;2023-03-04T12:05:08;96070.00;;;17.98;34.92
56038;BME280;41907;47.848;9.000;2023-03-04T12:08:23;96058.25;;;18.21;34.86
56038;BME280;41907;47.848;9.000;2023-03-04T12:10:41;96064.53;;;16.50;36.39
56038;BME280;41907;47.848;9.000;2023-03-04T12:13:32;96056.75;;;13.95;42.28
56038;BME280;41907;47.848;9.000;2023-03-04T12:22:45;96040.22;;;12.47;47.39
56038;BME280;41907;47.848;9.000;2023-03-04T12:30:37;96034.13;;;10.64;53.86
56038;BME280;41907;47.848;9.000;2023-03-04T12:33:32;96027.75;;;11.10;54.34
56038;BME280;41907;47.848;9.000;2023-03-04T12:41:33;96012.78;;;12.15;48.61
56038;BME280;41907;47.848;9.000;2023-03-04T12:46:40;96005.38;;;12.21;50.74
56038;BME280;41907;47.848;9.000;2023-03-04T12:52:02;95998.38;;;12.51;48.42
56038;BME280;41907;47.848;9.000;2023-03-04T12:54:38;95995.84;;;11.89;50.75
56038;BME280;41907;47.848;9.000;2023-03-04T12:57:14;95992.75;;;11.42;50.87
56038;BME280;41907;47.848;9.000;2023-03-04T13:10:00;95980.72;;;11.76;51.46
56038;BME280;41907;47.848;9.000;2023-03-04T13:12:45;95984.41;;;11.97;50.04
56038;BME280;41907;47.848;9.000;2023-03-04T13:17:37;95985.28;;;11.22;53.00
56038;BME280;41907;47.848;9.000;2023-03-04T13:41:13;95972.50;;;11.72;51.65
56038;BME280;41907;47.848;9.000;2023-03-04T13:51:22;95955.94;;;11.92;51.76
56038;BME280;41907;47.848;9.000;2023-03-04T13:53:52;95955.69;;;11.10;53.21
56038;BME280;41907;47.848;9.000;2023-03-04T13:56:41;95952.88;;;10.70;54.72
56038;BME280;41907;47.848;9.000;2023-03-04T14:01:48;95948.75;;;10.87;55.23
56038;BME280;41907;47.848;9.000;2023-03-04T14:06:47;95944.44;;;11.22;53.50
56038;BME280;41907;47.848;9.000;2023-03-04T14:11:48;95936.94;;;11.01;54.20
56038;BME280;41907;47.848;9.000;2023-03-04T14:14:18;95933.66;;;11.04;54.52
56038;BME280;41907;47.848;9.000;2023-03-04T14:17:04;95934.97;;;11.15;54.77
56038;BME280;41907;47.848;9.000;2023-03-04T14:19:34;95935.78;;;11.47;54.24
56038;BME280;41907;47.848;9.000;2023-03-04T14:22:22;95930.28;;;11.12;53.85
56038;BME280;41907;47.848;9.000;2023-03-04T14:27:28;95923.13;;;10.99;54.34
56038;BME280;41907;47.848;9.000;2023-03-04T14:29:55;95922.97;;;11.04;53.16
56038;BME280;41907;47.848;9.000;2023-03-04T14:32:21;95916.53;;;11.28;54.47
56038;BME280;41907;47.848;9.000;2023-03-04T14:34:48;95912.94;;;10.57;55.57
56038;BME280;41907;47.848;9.000;2023-03-04T14:37:20;95910.75;;;10.81;54.87
56038;BME280;41907;47.848;9.000;2023-03-04T14:39:49;95911.34;;;10.78;54.59
56038;BME280;41907;47.848;9.000;2023-03-04T14:42:19;95907.16;;;10.86;55.68
56038;BME280;41907;47.848;9.000;2023-03-04T14:44:48;95902.03;;;10.44;56.24
56038;BME280;41907;47.848;9.000;2023-03-04T14:47:22;95912.91;;;10.34;56.27